Terminal Aerodrome Forecast
Issued by NWS Mt. Holly, NJ

Home | Current Version | Previous Version | Text Only | Print | Product List | Glossary On
Versions: 1 2 3 4 5 6 7 8 9 10 11 12 13 14
000
FTUS41 KPHI 232320
TAFACY
TAF
KACY 232320Z 2400/2424 VRB04KT P6SM SCT100
     FM240500 VRB03KT P6SM SKC
      TEMPO 2407/2410 3SM BR SCT002
     FM241800 16008KT P6SM SKC=

USA.gov is the U.S. government's official web portal to all federal, state and local government web resources and services.